Time,TemperatureF,DewpointF,PressureIn,WindDirection,WindDirectionDegrees,WindSpeedMPH,WindSpeedGustMPH,Humidity,HourlyPrecipIn,Conditions,Clouds,dailyrainin,SoftwareType,DateUTC
2013-08-20 09:21:00,79.0,71.0,30.07,NE,38,0.0,-999.0,77,-99.99,,,-99.99,,2013-08-20 14:21:00,
2013-08-20 09:52:00,80.0,71.0,30.08,ENE,65,0.0,-999.0,73,-99.99,,,-99.99,,2013-08-20 14:52:00,
2013-08-20 10:11:00,80.0,70.0,30.08,ENE,77,0.0,-999.0,72,-99.99,,,-99.99,,2013-08-20 15:11:00,
2013-08-20 10:22:00,82.0,71.0,30.08,East,91,0.0,-999.0,70,-99.99,,,-99.99,,2013-08-20 15:22:00,
2013-08-20 10:53:00,82.0,71.0,30.09,East,88,0.0,-999.0,70,-99.99,,,-99.99,,2013-08-20 15:53:00,
2013-08-20 11:30:00,-999.0,-99.9,30.08,ESE,109,3.0,-999.0,66,-99.99,,,-99.99,,2013-08-20 16:30:00,
2013-08-20 11:53:00,83.0,70.0,30.08,ENE,76,2.0,-999.0,65,-99.99,,,-99.99,,2013-08-20 16:53:00,
2013-08-20 12:12:00,83.0,70.0,30.08,East,101,3.0,-999.0,64,-99.99,,,-99.99,,2013-08-20 17:12:00,
2013-08-20 12:24:00,83.0,70.0,30.08,ENE,72,2.0,-999.0,65,-99.99,,,-99.99,,2013-08-20 17:24:00,
2013-08-20 12:52:00,84.0,69.0,30.07,ENE,69,0.0,-999.0,60,-99.99,,,-99.99,,2013-08-20 17:52:00,
2013-08-20 13:12:00,85.0,70.0,30.07,East,99,1.0,-999.0,60,-99.99,,,-99.99,,2013-08-20 18:12:00,
2013-08-20 13:22:00,85.0,70.0,30.07,East,84,1.0,-999.0,60,-99.99,,,-99.99,,2013-08-20 18:22:00,
2013-08-20 13:52:00,85.0,68.0,30.06,SE,143,1.0,-999.0,57,-99.99,,,-99.99,,2013-08-20 18:52:00,
2013-08-20 14:11:00,86.0,68.0,30.05,ENE,76,1.0,-999.0,55,-99.99,,,-99.99,,2013-08-20 19:11:00,
2013-08-20 14:21:00,87.0,67.0,30.05,NE,56,0.0,-999.0,52,-99.99,,,-99.99,,2013-08-20 19:21:00,
2013-08-20 14:53:00,88.0,67.0,30.03,East,101,0.0,-999.0,50,-99.99,,,-99.99,,2013-08-20 19:53:00,
2013-08-20 15:12:00,87.0,67.0,30.03,ENE,76,0.0,-999.0,51,-99.99,,,-99.99,,2013-08-20 20:12:00,
2013-08-20 15:22:00,87.0,68.0,30.03,East,84,0.0,-999.0,53,-99.99,,,-99.99,,2013-08-20 20:22:00,
2013-08-20 15:52:00,88.0,68.0,30.01,NNE,29,1.0,-999.0,52,-99.99,,,-99.99,,2013-08-20 20:52:00,
2013-08-20 16:22:00,87.0,70.0,30.01,NNE,33,1.0,-999.0,57,-99.99,,,-99.99,,2013-08-20 21:22:00,
2013-08-20 16:55:00,88.0,70.0,30.01,East,99,0.0,-999.0,56,-99.99,,,-99.99,,2013-08-20 21:55:00,
2013-08-20 17:24:00,87.0,68.0,30.00,NE,48,1.0,-999.0,53,-99.99,,,-99.99,,2013-08-20 22:24:00,
2013-08-20 17:53:00,87.0,70.0,30.00,East,101,0.0,-999.0,57,-99.99,,,-99.99,,2013-08-20 22:53:00,
2013-08-20 18:22:00,86.0,69.0,30.01,ENE,75,0.0,-999.0,58,-99.99,,,-99.99,,2013-08-20 23:22:00,
2013-08-20 18:53:00,86.0,70.0,30.01,East,94,0.0,-999.0,60,-99.99,,,-99.99,,2013-08-20 23:53:00,
2013-08-20 19:22:00,85.0,70.0,30.01,ENE,73,0.0,-999.0,60,-99.99,,,-99.99,,2013-08-21 00:22:00,
2013-08-20 19:42:00,85.0,70.0,30.01,ENE,73,0.0,-999.0,61,-99.99,,,-99.99,,2013-08-21 00:42:00,